createdAt,value
2022-10-09T00:00:25.879Z,98793.25
2022-10-09T00:02:57.971Z,98793.97
2022-10-09T00:05:32.304Z,98791.72
2022-10-09T00:08:04.353Z,98802.38
2022-10-09T00:10:38.559Z,98795.88
2022-10-09T00:13:10.490Z,98794.22
2022-10-09T00:15:43.705Z,98801.88
2022-10-09T00:18:20.568Z,98806.69
2022-10-09T00:20:54.508Z,98801.09
2022-10-09T00:23:26.890Z,98812.94
2022-10-09T00:26:01.104Z,98811.00
2022-10-09T00:28:38.297Z,98813.66
2022-10-09T00:31:13.475Z,98816.06
2022-10-09T00:33:47.055Z,98816.97
2022-10-09T00:36:22.869Z,98823.59
2022-10-09T00:38:56.567Z,98823.97
2022-10-09T00:41:30.838Z,98826.84
2022-10-09T00:44:03.909Z,98824.66
2022-10-09T00:46:42.882Z,98828.03
2022-10-09T00:49:20.818Z,98827.56
2022-10-09T00:51:57.397Z,98836.31
2022-10-09T00:54:32.735Z,98831.88
2022-10-09T00:57:05.770Z,98836.03
2022-10-09T00:59:38.479Z,98833.75
2022-10-09T01:02:10.902Z,98830.22
2022-10-09T01:04:43.589Z,98834.03
2022-10-09T01:07:36.738Z,98825.91
2022-10-09T01:10:21.215Z,98833.56
2022-10-09T01:13:05.191Z,98837.28
2022-10-09T01:15:44.732Z,98833.22
2022-10-09T01:18:26.549Z,98829.81
2022-10-09T01:21:04.123Z,98836.38
2022-10-09T01:23:50.899Z,98842.16
2022-10-09T01:26:46.749Z,98842.16
2022-10-09T01:29:23.620Z,98843.59
2022-10-09T01:31:56.208Z,98843.13
2022-10-09T01:34:30.371Z,98848.28
2022-10-09T01:37:04.380Z,98853.94
2022-10-09T01:39:38.995Z,98861.13
2022-10-09T01:42:11.991Z,98863.75
2022-10-09T01:44:46.292Z,98875.22
2022-10-09T01:47:20.506Z,98875.47
2022-10-09T01:49:59.131Z,98884.59
2022-10-09T01:52:51.421Z,98887.91
2022-10-09T01:55:33.838Z,98883.25
2022-10-09T01:58:14.016Z,98891.75
2022-10-09T02:00:51.930Z,98894.13
2022-10-09T02:03:26.030Z,98895.44
2022-10-09T02:06:00.147Z,98900.84
2022-10-09T02:08:36.157Z,98914.41
2022-10-09T02:11:10.292Z,98925.44
2022-10-09T02:13:42.973Z,98918.47
2022-10-09T02:16:22.974Z,98933.03
2022-10-09T02:19:01.857Z,98936.03
2022-10-09T02:21:46.172Z,98925.56
2022-10-09T02:24:23.847Z,98940.13
2022-10-09T02:26:58.991Z,98941.91
2022-10-09T02:29:30.981Z,98940.22
2022-10-09T02:32:05.107Z,98941.22
2022-10-09T02:34:37.188Z,98941.13
2022-10-09T02:37:09.805Z,98945.75
2022-10-09T02:39:42.463Z,98946.16
2022-10-09T02:42:14.806Z,98954.69
2022-10-09T02:44:46.510Z,98959.97
2022-10-09T02:47:20.810Z,98960.19
2022-10-09T02:49:53.460Z,98971.31
2022-10-09T02:52:25.576Z,98969.50
2022-10-09T02:54:57.608Z,98966.38
2022-10-09T02:57:29.847Z,98968.94
2022-10-09T03:00:01.603Z,98973.31
2022-10-09T03:02:35.313Z,98966.38
2022-10-09T03:05:07.315Z,98980.22
2022-10-09T03:07:39.220Z,98979.91
2022-10-09T03:10:11.575Z,98973.31
2022-10-09T03:12:44.287Z,98969.66
2022-10-09T03:15:17.057Z,98978.75
2022-10-09T03:17:51.100Z,98975.75
2022-10-09T03:20:23.341Z,98976.56
2022-10-09T03:22:56.228Z,98966.63
2022-10-09T03:25:29.119Z,98967.13
2022-10-09T03:28:01.482Z,98972.72
2022-10-09T03:30:33.804Z,98968.72
2022-10-09T03:33:07.513Z,98967.06
2022-10-09T03:35:39.670Z,98971.38
2022-10-09T03:38:11.997Z,98972.34
2022-10-09T03:40:44.289Z,98972.84
2022-10-09T03:43:17.018Z,98971.63
2022-10-09T03:45:49.259Z,98969.69
2022-10-09T03:48:23.017Z,98966.34
2022-10-09T03:50:55.279Z,98966.31
2022-10-09T03:53:28.123Z,98976.94
2022-10-09T03:56:00.168Z,98982.34
2022-10-09T03:58:32.616Z,98977.06
2022-10-09T04:01:05.058Z,98972.66
2022-10-09T04:03:39.124Z,98981.47
2022-10-09T04:06:11.603Z,98979.38
2022-10-09T04:08:44.193Z,98987.03
2022-10-09T04:11:16.258Z,98986.56
2022-10-09T04:13:49.243Z,98987.13
2022-10-09T04:16:21.275Z,98989.41
2022-10-09T04:18:55.604Z,98992.41
2022-10-09T04:21:27.927Z,98992.31
2022-10-09T04:24:00.837Z,98995.81
2022-10-09T04:26:32.840Z,98991.59
2022-10-09T04:29:05.637Z,98997.41
2022-10-09T04:31:38.059Z,99001.03
2022-10-09T04:34:12.955Z,99006.31
2022-10-09T04:36:45.004Z,99005.78
2022-10-09T04:39:18.054Z,99004.88
2022-10-09T04:41:49.921Z,98998.88
2022-10-09T04:44:22.405Z,99005.41
2022-10-09T04:46:55.080Z,99001.91
2022-10-09T04:49:29.140Z,98997.41
2022-10-09T04:52:00.955Z,98991.19
2022-10-09T04:54:33.476Z,98988.94
2022-10-09T04:57:05.769Z,98985.34
2022-10-09T04:59:38.268Z,98992.59
2022-10-09T05:02:10.299Z,98980.38
2022-10-09T05:04:43.923Z,98978.16
2022-10-09T05:07:15.877Z,98973.72
2022-10-09T05:09:47.706Z,98977.41
2022-10-09T05:12:20.176Z,98976.03
2022-10-09T05:14:52.444Z,98979.56
2022-10-09T05:17:24.565Z,98968.50
2022-10-09T05:19:58.306Z,98972.19
2022-10-09T05:22:30.797Z,98973.91
2022-10-09T05:25:02.871Z,98974.84
2022-10-09T05:27:35.390Z,98965.94
2022-10-09T05:34:27.502Z,98960.47
2022-10-09T05:37:01.267Z,98959.66
2022-10-09T05:39:33.858Z,98965.94
2022-10-09T05:42:06.301Z,98960.63
2022-10-09T05:44:38.203Z,98960.78
2022-10-09T05:47:10.184Z,98958.16
2022-10-09T05:57:52.383Z,98939.41
2022-10-09T06:00:25.130Z,98936.50
2022-10-09T06:02:57.377Z,98939.44
2022-10-09T06:05:30.765Z,98933.53
2022-10-09T06:08:03.395Z,98932.69
2022-10-09T06:10:36.163Z,98931.47
2022-10-09T06:13:10.155Z,98919.75
2022-10-09T06:15:42.748Z,98916.22
2022-10-09T06:18:14.582Z,98924.44
2022-10-09T06:20:57.299Z,98916.63
2022-10-09T06:23:30.553Z,98916.16
2022-10-09T06:26:04.950Z,98916.88
2022-10-09T06:28:39.324Z,98918.13
2022-10-09T06:31:12.896Z,98904.56
2022-10-09T06:33:46.648Z,98901.25
2022-10-09T06:36:20.412Z,98899.66
2022-10-09T06:38:52.429Z,98890.19
2022-10-09T06:41:26.725Z,98888.53
2022-10-09T06:44:02.387Z,98891.38
2022-10-09T06:46:36.609Z,98885.47
2022-10-09T06:49:09.750Z,98893.09
2022-10-09T06:51:43.094Z,98884.63
2022-10-09T06:54:16.694Z,98893.84
2022-10-09T06:56:49.323Z,98876.63
2022-10-09T06:59:23.557Z,98876.53
2022-10-09T07:01:55.919Z,98869.94
2022-10-09T07:04:28.333Z,98867.72
2022-10-09T07:07:00.863Z,98887.44
2022-10-09T07:09:32.911Z,98870.53
2022-10-09T07:12:06.145Z,98854.66
2022-10-09T07:14:40.252Z,98847.63
2022-10-09T07:17:13.013Z,98848.19
2022-10-09T07:19:45.390Z,98845.66
2022-10-09T07:22:17.354Z,98851.09
2022-10-09T07:24:50.576Z,98848.25
2022-10-09T07:27:23.089Z,98844.06
2022-10-09T07:29:57.730Z,98841.72
2022-10-09T07:32:30.259Z,98829.34
2022-10-09T07:35:02.717Z,98835.59
2022-10-09T07:37:35.742Z,98838.50
2022-10-09T07:40:08.724Z,98830.16
2022-10-09T07:42:41.564Z,98838.16
2022-10-09T07:45:15.485Z,98832.88
2022-10-09T07:47:48.067Z,98830.09
2022-10-09T07:50:20.522Z,98815.03
2022-10-09T07:52:52.703Z,98807.25
2022-10-09T07:55:25.096Z,98816.19
2022-10-09T07:57:58.145Z,98817.28
2022-10-09T08:00:32.721Z,98810.25
2022-10-09T08:03:05.221Z,98805.03
2022-10-09T08:05:37.144Z,98805.34
2022-10-09T08:08:10.011Z,98797.81
2022-10-09T08:10:42.465Z,98787.34
2022-10-09T08:13:15.942Z,98779.72
2022-10-09T08:15:50.013Z,98774.91
2022-10-09T08:18:22.791Z,98770.94
2022-10-09T08:21:03.463Z,98751.88
2022-10-09T08:23:38.637Z,98749.97
2022-10-09T08:26:17.951Z,98756.78
2022-10-09T08:28:54.774Z,98754.31
2022-10-09T08:31:29.758Z,98771.97
2022-10-09T08:34:06.371Z,98776.16
2022-10-09T08:36:39.522Z,98775.63
2022-10-09T08:39:13.075Z,98773.66
2022-10-09T08:41:50.348Z,98777.13
2022-10-09T08:44:27.668Z,98773.09
2022-10-09T08:47:09.797Z,98760.44
2022-10-09T08:49:50.541Z,98763.22
2022-10-09T08:52:34.951Z,98772.00
2022-10-09T08:55:16.954Z,98782.00
2022-10-09T08:57:53.679Z,98769.31
2022-10-09T09:00:27.357Z,98764.19
2022-10-09T09:03:31.181Z,98766.25
2022-10-09T09:06:13.324Z,98766.97
2022-10-09T09:08:55.093Z,98757.22
2022-10-09T09:11:39.469Z,98755.81
2022-10-09T09:14:23.942Z,98757.66
2022-10-09T09:17:04.485Z,98759.19
2022-10-09T09:19:58.777Z,98762.81
2022-10-09T09:22:31.330Z,98767.94
2022-10-09T09:25:05.922Z,98771.59
2022-10-09T09:27:40.201Z,98764.91
2022-10-09T09:30:21.034Z,98769.91
2022-10-09T09:33:03.498Z,98785.63
2022-10-09T09:35:48.690Z,98786.72
2022-10-09T09:38:21.726Z,98777.81
2022-10-09T09:40:54.258Z,98774.06
2022-10-09T09:43:28.707Z,98773.66
2022-10-09T09:46:03.006Z,98766.97
2022-10-09T09:48:40.809Z,98788.66
2022-10-09T09:51:28.636Z,98775.31
2022-10-09T09:54:03.597Z,98788.53
2022-10-09T09:57:06.847Z,98799.69
2022-10-09T09:59:39.720Z,98798.13
2022-10-09T10:02:18.647Z,98803.59
2022-10-09T10:04:56.020Z,98797.44
2022-10-09T10:07:38.143Z,98785.47
2022-10-09T10:10:22.641Z,98780.75
2022-10-09T10:13:01.854Z,98772.28
2022-10-09T10:15:37.178Z,98779.75
2022-10-09T10:18:16.119Z,98780.59
2022-10-09T10:20:51.167Z,98771.38
2022-10-09T10:23:35.429Z,98777.66
2022-10-09T10:26:12.064Z,98768.63
2022-10-09T10:28:52.556Z,98778.38
2022-10-09T10:31:39.532Z,98759.13
2022-10-09T10:34:20.794Z,98760.41
2022-10-09T10:37:02.514Z,98766.91
2022-10-09T10:39:48.397Z,98760.84
2022-10-09T10:42:28.640Z,98750.84
2022-10-09T10:45:07.148Z,98756.97
2022-10-09T10:47:44.836Z,98743.47
2022-10-09T10:50:19.124Z,98731.78
2022-10-09T10:53:05.546Z,98734.56
2022-10-09T10:55:51.594Z,98718.28
2022-10-09T10:58:31.338Z,98714.38
2022-10-09T11:01:30.715Z,98715.19
2022-10-09T11:04:26.606Z,98717.81
2022-10-09T11:07:05.631Z,98736.19
2022-10-09T11:09:48.343Z,98743.81
2022-10-09T11:12:47.454Z,98758.28
2022-10-09T11:15:35.707Z,98769.22
2022-10-09T11:18:24.568Z,98774.09
2022-10-09T11:21:14.574Z,98770.59
2022-10-09T11:24:04.861Z,98773.41
2022-10-09T11:26:46.174Z,98775.19
2022-10-09T11:29:27.171Z,98772.81
2022-10-09T11:32:05.690Z,98785.66
2022-10-09T11:34:43.028Z,98790.63
2022-10-09T11:37:21.661Z,98793.84
2022-10-09T11:39:53.508Z,98797.88
2022-10-09T11:42:28.716Z,98798.69
2022-10-09T11:45:20.366Z,98808.94
2022-10-09T11:48:02.703Z,98804.19
2022-10-09T11:50:43.285Z,98821.66
2022-10-09T11:53:19.516Z,98818.94
2022-10-09T11:55:51.437Z,98825.28
2022-10-09T11:58:28.443Z,98820.63
2022-10-09T12:01:16.307Z,98832.50
2022-10-09T12:03:49.194Z,98833.66
2022-10-09T12:06:23.907Z,98823.25
2022-10-09T12:09:01.176Z,98827.53
2022-10-09T12:11:34.573Z,98821.66
2022-10-09T12:14:08.998Z,98819.41
2022-10-09T12:16:47.197Z,98817.88
2022-10-09T12:19:24.118Z,98823.69
2022-10-09T12:22:02.984Z,98820.28
2022-10-09T12:24:42.593Z,98842.41
2022-10-09T12:27:22.991Z,98853.84
2022-10-09T12:29:58.670Z,98847.91
2022-10-09T12:32:36.964Z,98831.50
2022-10-09T12:35:23.915Z,98836.56
2022-10-09T12:37:56.609Z,98848.03
2022-10-09T12:40:32.165Z,98854.13
2022-10-09T12:43:11.425Z,98843.69
2022-10-09T12:45:48.558Z,98852.16
2022-10-09T12:48:26.763Z,98859.63
2022-10-09T12:50:59.121Z,98874.34
2022-10-09T12:53:32.003Z,98870.22
2022-10-09T12:56:05.058Z,98876.38
2022-10-09T12:58:40.907Z,98887.19
2022-10-09T13:01:18.907Z,98898.47
2022-10-09T13:04:00.523Z,98898.22
2022-10-09T13:06:40.368Z,98903.34
2022-10-09T13:09:21.987Z,98898.47
2022-10-09T13:11:58.693Z,98886.69
2022-10-09T13:14:38.135Z,98886.78
2022-10-09T13:17:25.078Z,98891.16
2022-10-09T13:20:00.262Z,98899.78
2022-10-09T13:22:33.696Z,98892.72
2022-10-09T13:25:08.707Z,98890.28
2022-10-09T13:27:43.635Z,98885.75
2022-10-09T13:30:16.948Z,98888.78
2022-10-09T13:32:49.397Z,98894.38
2022-10-09T13:35:23.798Z,98894.63
2022-10-09T13:37:55.829Z,98890.88
2022-10-09T13:40:28.388Z,98895.38
2022-10-09T13:43:07.147Z,98891.09
2022-10-09T13:45:39.320Z,98909.56
2022-10-09T13:48:12.017Z,98905.09
2022-10-09T13:50:45.684Z,98909.63
2022-10-09T13:53:18.416Z,98906.75
2022-10-09T13:55:50.432Z,98909.59
2022-10-09T13:58:22.354Z,98911.84
2022-10-09T14:00:54.373Z,98921.81
2022-10-09T14:03:26.905Z,98927.31
2022-10-09T14:06:05.108Z,98939.22
2022-10-09T14:08:37.869Z,98942.63
2022-10-09T14:11:10.139Z,98954.63
2022-10-09T14:13:42.386Z,98956.66
2022-10-09T14:16:14.773Z,98965.13
2022-10-09T14:18:47.106Z,98972.41
2022-10-09T14:21:21.410Z,98983.66
2022-10-09T14:23:57.323Z,98985.41
2022-10-09T14:26:30.222Z,98985.03
2022-10-09T14:29:04.512Z,98993.22
2022-10-09T14:31:36.497Z,98994.72
2022-10-09T14:34:10.053Z,98997.72
2022-10-09T14:36:44.514Z,99014.25
2022-10-09T14:39:17.538Z,99015.97
2022-10-09T14:41:49.960Z,99023.22
2022-10-09T14:44:22.646Z,99028.25
2022-10-09T14:46:55.414Z,99026.00
2022-10-09T14:49:29.100Z,99029.28
2022-10-09T14:52:02.674Z,99026.75
2022-10-09T14:54:35.640Z,99039.03
2022-10-09T14:57:08.957Z,99033.97
2022-10-09T14:59:41.632Z,99037.19
2022-10-09T15:02:16.586Z,99042.69
2022-10-09T15:04:51.007Z,99038.50
2022-10-09T15:07:25.227Z,99040.47
2022-10-09T15:09:58.401Z,99037.13
2022-10-09T15:12:30.593Z,99027.53
2022-10-09T15:15:03.024Z,99028.03
2022-10-09T15:17:39.176Z,99023.72
2022-10-09T15:20:12.775Z,99027.16
2022-10-09T15:22:46.795Z,99033.28
2022-10-09T15:25:19.684Z,99031.97
2022-10-09T15:27:54.693Z,99040.00
2022-10-09T15:30:27.710Z,99042.50
2022-10-09T15:33:00.198Z,99041.06
2022-10-09T15:35:32.570Z,99041.63
2022-10-09T15:38:08.720Z,99034.69
2022-10-09T15:40:47.948Z,99035.88
2022-10-09T15:43:23.658Z,99031.84
2022-10-09T15:45:57.392Z,99041.72
2022-10-09T15:48:29.688Z,99037.06
2022-10-09T15:51:08.447Z,99039.16
2022-10-09T15:53:42.645Z,99041.75
2022-10-09T15:56:17.142Z,99049.13
2022-10-09T15:58:50.023Z,99057.09
2022-10-09T16:01:22.989Z,99057.00
2022-10-09T16:03:56.463Z,99064.63
2022-10-09T16:06:28.935Z,99056.50
2022-10-09T16:09:06.693Z,99066.03
2022-10-09T16:11:39.008Z,99065.38
2022-10-09T16:14:11.490Z,99069.47
2022-10-09T16:16:43.870Z,99061.94
2022-10-09T16:19:16.325Z,99070.81
2022-10-09T16:21:48.370Z,99068.91
2022-10-09T16:24:27.234Z,99072.22
2022-10-09T16:27:01.228Z,99069.47
2022-10-09T16:29:34.156Z,99066.09
2022-10-09T16:32:06.739Z,99072.59
2022-10-09T16:34:39.617Z,99072.13
2022-10-09T16:37:12.588Z,99069.84
2022-10-09T16:39:46.814Z,99071.16
2022-10-09T16:42:20.183Z,99068.63
2022-10-09T16:44:53.061Z,99075.03
2022-10-09T16:47:25.702Z,99074.53
2022-10-09T16:49:57.936Z,99068.75
2022-10-09T16:52:30.825Z,99068.56
2022-10-09T16:55:04.369Z,99073.84
2022-10-09T16:57:37.151Z,99072.63
2022-10-09T17:00:10.871Z,99066.53
2022-10-09T17:02:43.434Z,99068.22
2022-10-09T17:05:16.508Z,99073.34
2022-10-09T17:07:49.290Z,99071.56
2022-10-09T17:10:24.010Z,99066.63
2022-10-09T17:12:56.960Z,99067.38
2022-10-09T17:15:29.853Z,99063.28
2022-10-09T17:18:02.557Z,99070.03
2022-10-09T17:20:34.875Z,99058.34
2022-10-09T17:23:07.344Z,99063.03
2022-10-09T17:25:47.022Z,99059.19
2022-10-09T17:28:19.413Z,99054.97
2022-10-09T17:30:51.545Z,99061.09
2022-10-09T17:33:24.112Z,99053.91
2022-10-09T17:35:56.679Z,99052.91
2022-10-09T17:38:28.985Z,99053.91
2022-10-09T17:41:03.129Z,99044.53
2022-10-09T17:43:36.200Z,99049.31
2022-10-09T17:46:08.759Z,99044.94
2022-10-09T17:48:45.906Z,99041.19
2022-10-09T17:51:19.599Z,99033.75
2022-10-09T17:53:52.380Z,99029.44
2022-10-09T17:56:26.401Z,99031.63
2022-10-09T17:58:58.910Z,99029.94
2022-10-09T18:01:31.764Z,99029.44
2022-10-09T18:04:03.996Z,99032.78
2022-10-09T18:06:38.444Z,99032.78
2022-10-09T18:09:10.834Z,99037.81
2022-10-09T18:11:44.781Z,99040.44
2022-10-09T18:14:16.923Z,99036.00
2022-10-09T18:16:49.273Z,99035.88
2022-10-09T18:19:23.075Z,99033.88
2022-10-09T18:21:55.451Z,99031.81
2022-10-09T18:24:28.702Z,99032.50
2022-10-09T18:27:02.623Z,99031.78
2022-10-09T18:29:35.233Z,99025.31
2022-10-09T18:32:07.323Z,99038.97
2022-10-09T18:34:43.136Z,99036.59
2022-10-09T18:37:21.259Z,99035.25
2022-10-09T18:39:53.552Z,99037.91
2022-10-09T18:42:27.922Z,99033.47
2022-10-09T18:44:59.892Z,99030.09
2022-10-09T18:47:37.181Z,99033.47
2022-10-09T18:50:12.743Z,99040.88
2022-10-09T18:52:46.357Z,99025.25
2022-10-09T18:55:24.728Z,99030.53
2022-10-09T18:57:58.351Z,99025.16
2022-10-09T19:00:31.067Z,99029.34
2022-10-09T19:03:03.371Z,99030.63
2022-10-09T19:05:35.766Z,99028.13
2022-10-09T19:08:08.243Z,99034.13
2022-10-09T19:10:40.328Z,99028.38
2022-10-09T19:13:14.736Z,99031.25
2022-10-09T19:15:52.761Z,99026.00
2022-10-09T19:18:24.806Z,99023.63
2022-10-09T19:20:57.647Z,99019.41
2022-10-09T19:23:30.081Z,99023.47
2022-10-09T19:26:03.315Z,99018.56
2022-10-09T19:28:39.556Z,99020.50
2022-10-09T19:31:13.390Z,99014.59
2022-10-09T19:33:45.811Z,99022.25
2022-10-09T19:36:18.799Z,99015.44
2022-10-09T19:38:51.467Z,99026.25
2022-10-09T19:41:23.659Z,99026.81
2022-10-09T19:43:57.220Z,99019.88
2022-10-09T19:46:30.660Z,99024.31
2022-10-09T19:49:02.670Z,99017.63
2022-10-09T19:51:36.061Z,99012.34
2022-10-09T19:54:09.430Z,99014.53
2022-10-09T19:56:43.421Z,99023.41
2022-10-09T19:59:17.449Z,99020.00
2022-10-09T20:01:51.871Z,99014.47
2022-10-09T20:04:27.342Z,99004.41
2022-10-09T20:06:59.596Z,99009.94
2022-10-09T20:09:32.392Z,99012.56
2022-10-09T20:12:04.622Z,99011.16
2022-10-09T20:14:38.298Z,99008.41
2022-10-09T20:17:11.463Z,99008.66
2022-10-09T20:19:45.852Z,99007.81
2022-10-09T20:22:18.709Z,99005.25
2022-10-09T20:24:50.789Z,99011.09
2022-10-09T20:27:23.224Z,99008.47
2022-10-09T20:29:58.090Z,99011.00
2022-10-09T20:32:31.830Z,99008.75
2022-10-09T20:35:04.619Z,99006.34
2022-10-09T20:37:37.361Z,99006.47
2022-10-09T20:40:10.261Z,98996.22
2022-10-09T20:42:42.721Z,99002.09
2022-10-09T20:45:16.975Z,98999.59
2022-10-09T20:47:49.284Z,98997.66
2022-10-09T20:50:21.547Z,98996.00
2022-10-09T20:52:53.788Z,98990.94
2022-10-09T20:55:25.619Z,98989.31
2022-10-09T20:57:58.271Z,98988.19
2022-10-09T21:00:32.253Z,98988.78
2022-10-09T21:03:04.329Z,98991.94
2022-10-09T21:05:36.042Z,98991.66
2022-10-09T21:08:08.148Z,98985.66
2022-10-09T21:10:46.344Z,98980.38
2022-10-09T21:13:18.436Z,98982.34
2022-10-09T21:15:53.157Z,98969.50
2022-10-09T21:18:25.956Z,98979.22
2022-10-09T21:20:58.197Z,98981.38
2022-10-09T21:23:30.555Z,98977.50
2022-10-09T21:26:03.370Z,98970.44
2022-10-09T21:28:35.979Z,98973.19
2022-10-09T21:31:14.981Z,98980.16
2022-10-09T21:33:47.475Z,98972.47
2022-10-09T21:36:29.490Z,98976.78
2022-10-09T21:39:01.606Z,98971.50
2022-10-09T21:41:34.478Z,98972.47
2022-10-09T21:44:08.013Z,98970.22
2022-10-09T21:46:43.252Z,98975.38
2022-10-09T21:49:23.028Z,98971.78
2022-10-09T21:51:55.683Z,98969.16
2022-10-09T21:54:27.793Z,98974.28
2022-10-09T21:57:00.350Z,98972.63
2022-10-09T21:59:32.847Z,98974.44
2022-10-09T22:02:06.371Z,98964.31
2022-10-09T22:04:38.947Z,98957.34
2022-10-09T22:07:11.302Z,98957.63
2022-10-09T22:09:43.309Z,98969.66
2022-10-09T22:12:15.978Z,98960.94
2022-10-09T22:14:48.091Z,98956.63
2022-10-09T22:17:21.795Z,98956.38
2022-10-09T22:19:54.033Z,98954.00
2022-10-09T22:22:26.860Z,98954.47
2022-10-09T22:24:59.120Z,98948.47
2022-10-09T22:27:31.277Z,98955.31
2022-10-09T22:30:03.078Z,98958.50
2022-10-09T22:32:37.098Z,98955.31
2022-10-09T22:35:10.471Z,98961.44
2022-10-09T22:37:43.085Z,98961.44
2022-10-09T22:40:15.308Z,98957.94
2022-10-09T22:42:47.671Z,98952.66
2022-10-09T22:45:20.022Z,98951.00
2022-10-09T22:47:54.320Z,98956.00
2022-10-09T22:50:26.638Z,98955.31
2022-10-09T22:52:59.012Z,98952.06
2022-10-09T22:55:30.996Z,98960.94
2022-10-09T22:58:03.086Z,98958.44
2022-10-09T23:00:35.637Z,98966.22
2022-10-09T23:03:09.167Z,98962.38
2022-10-09T23:05:41.658Z,98960.00
2022-10-09T23:08:13.957Z,98966.94
2022-10-09T23:10:46.023Z,98968.22
2022-10-09T23:13:18.015Z,98971.72
2022-10-09T23:15:49.959Z,98972.47
2022-10-09T23:18:23.690Z,98977.63
2022-10-09T23:20:55.598Z,98974.63
2022-10-09T23:23:30.531Z,98981.81
2022-10-09T23:26:02.861Z,98982.53
2022-10-09T23:28:35.333Z,98980.16
2022-10-09T23:31:09.286Z,98989.03
2022-10-09T23:33:44.947Z,98987.81
2022-10-09T23:36:19.778Z,98990.72
2022-10-09T23:38:53.106Z,98988.78
2022-10-09T23:41:26.905Z,98992.63
2022-10-09T23:43:59.239Z,98997.66
2022-10-09T23:46:34.469Z,98992.38
2022-10-09T23:49:08.956Z,99002.69
2022-10-09T23:51:41.548Z,98998.38
2022-10-09T23:54:13.390Z,98996.81
2022-10-09T23:56:45.953Z,98999.06
2022-10-09T23:59:18.005Z,98995.88
